Impacts TAF Board INFO
FOR SITUATIONAL AWARENESS. NOT TO BE USED FOR FLIGHT PLANNING PURPOSES.
IDs:

KBOS - Boston/Logan Intl, MA, US

Issued at 0235 UTC 20 Aug 2018
Updated at 0331 UTC 20 Aug 2018
Potential Impact None Slight Moderate High
Time<<20/16Z 20/17Z 20/18Z 20/19Z 20/20Z 20/21Z 20/22Z 20/23Z 21/00Z 21/01Z 21/02Z 21/03Z 21/04Z>>
Type PRVL PRVL PRVL PRVL PRVL PRVL PRVL PRVL PRVL PRVL PRVL PRVL PRVL
VIS >6 >6 >6 >6 >6 >6 >6 >6 >6 >6 >6 >6 >6
CIG 40 40 40 40 40 40 40 40 40 40 40 40 40
Cover BKN BKN BKN BKN BKN BKN BKN BKN BKN BKN BKN BKN BKN
FltCat VFR VFR VFR VFR VFR VFR VFR VFR VFR VFR VFR VFR VFR
WX -- -- -- -- -- -- -- -- -- -- -- -- --
WDir 60 60 60 60 60 60 60 60 60 60 60 60 60
WSpd 10 10 10 10 10 10 10 10 10 10 10 10 10
WGst -- -- -- -- -- -- -- -- -- -- -- -- --

Raw TAF
KBOS 200235Z 2003/2106 04012KT 3SM -SHRA BR FEW008 OVC015
  FM200800 03010KT 2SM BR OVC008
  FM201200 03008KT P6SM OVC020
  FM201500 06010KT P6SM BKN040


METAR Board
Radar Display
Forecast Discussion

FOR SITUATIONAL AWARENESS. NOT TO BE USED FOR FLIGHT PLANNING PURPOSES.